Lake Forest, California
Current Conditions -  °F | °C
As of 3:19 AM on Monday 20 Oct 2014 (Local Time) from KSNA Reporting Station
Overcast Overcast  
Wind Chill: 70°   Ceiling: 1300
Heat Index: 70°   Visibility: 10mi
Dew Point: 63°   Wind: 0mph
Humidity: 78%   Direction: NA
Pressure: 29.88"   Gusts: NA
Location:  33.65°N, 117.69°W
Report Text: KSNA 201019Z AUTO 00000KT 10SM OVC013 21/17 A2988 RMK AO2 TSNO $
Loading
Personal Weather Stations






























Interactive Weather Map
Tropical Storm Tracking
New forecast layout! Learn more

10-Day Weather Forecast

Advertisements
Track Severe Weather on mobile